Terminal Aerodrome Forecast
Issued by NWS Sterling, VA

Current Version | Previous Version | Graphics & Text | Print | Product List | Glossary On
Versions: 1 2 3 4 5 6 7 8 9 10 11 12 13 14 15 16
817
FTUS41 KLWX 121127
TAFMRB
TAF
KMRB 121127Z 1212/1312 VRB03KT P6SM BKN200
     FM122000 21007KT 3SM -SHSN BKN050
     FM130200 27005KT P6SM BKN045
     FM130500 29011G22KT P6SM BKN040
     FM130900 30015G30KT P6SM BKN045=

USA.gov is the U.S. government's official web portal to all federal, state and local government web resources and services.